sensor_id;sensor_type;location;lat;lon;timestamp;temperature;humidity
39219;DHT22;24934;52.752;6.964;2023-07-29T00:00:47;17.30;99.90
39219;DHT22;24934;52.752;6.964;2023-07-29T00:03:12;17.30;99.90
39219;DHT22;24934;52.752;6.964;2023-07-29T00:05:38;17.20;99.90
39219;DHT22;24934;52.752;6.964;2023-07-29T00:08:04;17.20;99.90
39219;DHT22;24934;52.752;6.964;2023-07-29T00:10:36;17.20;99.90
39219;DHT22;24934;52.752;6.964;2023-07-29T00:13:03;17.20;99.90
39219;DHT22;24934;52.752;6.964;2023-07-29T00:15:29;17.20;99.90
39219;DHT22;24934;52.752;6.964;2023-07-29T00:17:54;17.20;99.90
39219;DHT22;24934;52.752;6.964;2023-07-29T00:20:20;17.10;99.90
39219;DHT22;24934;52.752;6.964;2023-07-29T00:22:46;17.10;99.90
39219;DHT22;24934;52.752;6.964;2023-07-29T00:25:11;17.10;99.90
39219;DHT22;24934;52.752;6.964;2023-07-29T00:27:37;17.10;99.90
39219;DHT22;24934;52.752;6.964;2023-07-29T00:30:03;17.10;99.90
39219;DHT22;24934;52.752;6.964;2023-07-29T00:32:30;17.20;99.90
39219;DHT22;24934;52.752;6.964;2023-07-29T00:34:56;17.30;99.90
39219;DHT22;24934;52.752;6.964;2023-07-29T00:37:24;17.30;99.90
39219;DHT22;24934;52.752;6.964;2023-07-29T00:39:49;17.40;99.90
39219;DHT22;24934;52.752;6.964;2023-07-29T00:42:15;17.50;99.90
39219;DHT22;24934;52.752;6.964;2023-07-29T00:44:41;17.50;99.90
39219;DHT22;24934;52.752;6.964;2023-07-29T00:47:07;17.50;99.90
39219;DHT22;24934;52.752;6.964;2023-07-29T00:49:33;17.50;99.90
39219;DHT22;24934;52.752;6.964;2023-07-29T00:51:59;17.50;99.90
39219;DHT22;24934;52.752;6.964;2023-07-29T00:54:24;17.50;99.90
39219;DHT22;24934;52.752;6.964;2023-07-29T00:56:50;17.50;99.90
39219;DHT22;24934;52.752;6.964;2023-07-29T00:59:16;17.50;99.90
39219;DHT22;24934;52.752;6.964;2023-07-29T01:01:44;17.50;99.90
39219;DHT22;24934;52.752;6.964;2023-07-29T01:04:09;17.50;99.90
39219;DHT22;24934;52.752;6.964;2023-07-29T01:06:53;17.50;99.90
39219;DHT22;24934;52.752;6.964;2023-07-29T01:09:48;17.50;99.90
39219;DHT22;24934;52.752;6.964;2023-07-29T01:12:27;17.50;99.90
39219;DHT22;24934;52.752;6.964;2023-07-29T01:20:45;17.40;99.90
39219;DHT22;24934;52.752;6.964;2023-07-29T01:23:11;17.30;99.90
39219;DHT22;24934;52.752;6.964;2023-07-29T01:25:37;17.20;99.90
39219;DHT22;24934;52.752;6.964;2023-07-29T01:28:05;17.20;99.90
39219;DHT22;24934;52.752;6.964;2023-07-29T01:30:39;17.20;99.90
39219;DHT22;24934;52.752;6.964;2023-07-29T01:36:03;17.20;99.90
39219;DHT22;24934;52.752;6.964;2023-07-29T01:38:40;17.20;99.90
39219;DHT22;24934;52.752;6.964;2023-07-29T01:41:08;17.20;99.90
39219;DHT22;24934;52.752;6.964;2023-07-29T01:43:34;17.20;99.90
39219;DHT22;24934;52.752;6.964;2023-07-29T01:46:04;17.10;99.90
39219;DHT22;24934;52.752;6.964;2023-07-29T01:48:36;17.10;99.90
39219;DHT22;24934;52.752;6.964;2023-07-29T01:51:03;17.10;99.90
39219;DHT22;24934;52.752;6.964;2023-07-29T01:53:29;17.10;99.90
39219;DHT22;24934;52.752;6.964;2023-07-29T01:55:54;17.10;99.90
39219;DHT22;24934;52.752;6.964;2023-07-29T01:58:22;17.20;99.90
39219;DHT22;24934;52.752;6.964;2023-07-29T02:00:47;17.10;99.90
39219;DHT22;24934;52.752;6.964;2023-07-29T02:03:13;17.10;99.90
39219;DHT22;24934;52.752;6.964;2023-07-29T02:05:39;17.10;99.90
39219;DHT22;24934;52.752;6.964;2023-07-29T02:08:05;17.10;99.90
39219;DHT22;24934;52.752;6.964;2023-07-29T02:10:30;17.10;99.90
39219;DHT22;24934;52.752;6.964;2023-07-29T02:12:56;17.10;99.90
39219;DHT22;24934;52.752;6.964;2023-07-29T02:15:22;17.10;99.90
39219;DHT22;24934;52.752;6.964;2023-07-29T02:17:50;17.00;99.90
39219;DHT22;24934;52.752;6.964;2023-07-29T02:20:16;16.90;99.90
39219;DHT22;24934;52.752;6.964;2023-07-29T02:22:42;16.90;99.90
39219;DHT22;24934;52.752;6.964;2023-07-29T02:25:08;16.90;99.90
39219;DHT22;24934;52.752;6.964;2023-07-29T02:27:33;16.80;99.90
39219;DHT22;24934;52.752;6.964;2023-07-29T02:29:59;16.90;99.90
39219;DHT22;24934;52.752;6.964;2023-07-29T02:32:24;16.90;99.90
39219;DHT22;24934;52.752;6.964;2023-07-29T02:34:50;16.90;99.90
39219;DHT22;24934;52.752;6.964;2023-07-29T02:37:16;16.90;99.90
39219;DHT22;24934;52.752;6.964;2023-07-29T02:39:42;16.90;99.90
39219;DHT22;24934;52.752;6.964;2023-07-29T02:42:08;16.90;99.90
39219;DHT22;24934;52.752;6.964;2023-07-29T02:44:33;16.80;99.90
39219;DHT22;24934;52.752;6.964;2023-07-29T02:46:59;16.80;99.90
39219;DHT22;24934;52.752;6.964;2023-07-29T02:49:25;16.70;99.90
39219;DHT22;24934;52.752;6.964;2023-07-29T02:51:50;16.60;99.90
39219;DHT22;24934;52.752;6.964;2023-07-29T02:54:21;16.50;99.90
39219;DHT22;24934;52.752;6.964;2023-07-29T02:56:47;16.50;99.90
39219;DHT22;24934;52.752;6.964;2023-07-29T02:59:12;16.40;99.90
39219;DHT22;24934;52.752;6.964;2023-07-29T03:01:38;16.30;99.90
39219;DHT22;24934;52.752;6.964;2023-07-29T03:04:04;16.30;99.90
39219;DHT22;24934;52.752;6.964;2023-07-29T03:06:29;16.30;99.90
39219;DHT22;24934;52.752;6.964;2023-07-29T03:08:55;16.30;99.90
39219;DHT22;24934;52.752;6.964;2023-07-29T03:11:21;16.20;99.90
39219;DHT22;24934;52.752;6.964;2023-07-29T03:13:46;16.20;99.90
39219;DHT22;24934;52.752;6.964;2023-07-29T03:16:16;16.10;99.90
39219;DHT22;24934;52.752;6.964;2023-07-29T03:18:43;16.10;99.90
39219;DHT22;24934;52.752;6.964;2023-07-29T03:21:09;16.10;99.90
39219;DHT22;24934;52.752;6.964;2023-07-29T03:23:35;16.10;99.90
39219;DHT22;24934;52.752;6.964;2023-07-29T03:26:02;16.00;99.90
39219;DHT22;24934;52.752;6.964;2023-07-29T03:28:36;16.00;99.90
39219;DHT22;24934;52.752;6.964;2023-07-29T03:31:02;16.10;99.90
39219;DHT22;24934;52.752;6.964;2023-07-29T03:33:32;16.10;99.90
39219;DHT22;24934;52.752;6.964;2023-07-29T03:35:58;16.10;99.90
39219;DHT22;24934;52.752;6.964;2023-07-29T03:38:26;16.10;99.90
39219;DHT22;24934;52.752;6.964;2023-07-29T03:40:52;16.10;99.90
39219;DHT22;24934;52.752;6.964;2023-07-29T03:43:19;16.00;99.90
39219;DHT22;24934;52.752;6.964;2023-07-29T03:45:44;16.10;99.90
39219;DHT22;24934;52.752;6.964;2023-07-29T03:48:10;16.10;99.90
39219;DHT22;24934;52.752;6.964;2023-07-29T03:50:36;16.00;99.90
39219;DHT22;24934;52.752;6.964;2023-07-29T03:53:03;16.00;99.90
39219;DHT22;24934;52.752;6.964;2023-07-29T03:55:28;16.00;99.90
39219;DHT22;24934;52.752;6.964;2023-07-29T03:57:58;16.00;99.90
39219;DHT22;24934;52.752;6.964;2023-07-29T04:00:24;16.00;99.90
39219;DHT22;24934;52.752;6.964;2023-07-29T04:02:50;16.00;99.90
39219;DHT22;24934;52.752;6.964;2023-07-29T04:05:16;16.00;99.90
39219;DHT22;24934;52.752;6.964;2023-07-29T04:07:41;16.00;99.90
39219;DHT22;24934;52.752;6.964;2023-07-29T04:10:07;15.90;99.90
39219;DHT22;24934;52.752;6.964;2023-07-29T04:12:33;16.00;99.90
39219;DHT22;24934;52.752;6.964;2023-07-29T04:14:59;16.00;99.90
39219;DHT22;24934;52.752;6.964;2023-07-29T04:17:25;15.90;99.90
39219;DHT22;24934;52.752;6.964;2023-07-29T04:19:52;16.00;99.90
39219;DHT22;24934;52.752;6.964;2023-07-29T04:22:18;16.00;99.90
39219;DHT22;24934;52.752;6.964;2023-07-29T04:24:44;16.00;99.90
39219;DHT22;24934;52.752;6.964;2023-07-29T04:27:09;16.00;99.90
39219;DHT22;24934;52.752;6.964;2023-07-29T04:29:36;16.00;99.90
39219;DHT22;24934;52.752;6.964;2023-07-29T04:32:05;16.00;99.90
39219;DHT22;24934;52.752;6.964;2023-07-29T04:34:33;16.00;99.90
39219;DHT22;24934;52.752;6.964;2023-07-29T04:37:17;16.00;99.90
39219;DHT22;24934;52.752;6.964;2023-07-29T04:39:42;16.10;99.90
39219;DHT22;24934;52.752;6.964;2023-07-29T04:42:08;16.20;99.90
39219;DHT22;24934;52.752;6.964;2023-07-29T04:44:44;16.20;99.90
39219;DHT22;24934;52.752;6.964;2023-07-29T04:47:10;16.30;99.90
39219;DHT22;24934;52.752;6.964;2023-07-29T04:49:36;16.30;99.90
39219;DHT22;24934;52.752;6.964;2023-07-29T04:52:02;16.40;99.90
39219;DHT22;24934;52.752;6.964;2023-07-29T04:54:27;16.40;99.90
39219;DHT22;24934;52.752;6.964;2023-07-29T04:56:53;16.50;99.90
39219;DHT22;24934;52.752;6.964;2023-07-29T04:59:19;16.50;99.90
39219;DHT22;24934;52.752;6.964;2023-07-29T05:01:44;16.50;99.90
39219;DHT22;24934;52.752;6.964;2023-07-29T05:04:10;16.60;99.90
39219;DHT22;24934;52.752;6.964;2023-07-29T05:06:36;16.60;99.90
39219;DHT22;24934;52.752;6.964;2023-07-29T05:09:15;16.60;99.90
39219;DHT22;24934;52.752;6.964;2023-07-29T05:11:44;16.60;99.90
39219;DHT22;24934;52.752;6.964;2023-07-29T05:14:24;16.70;99.90
39219;DHT22;24934;52.752;6.964;2023-07-29T05:17:16;16.70;99.90
39219;DHT22;24934;52.752;6.964;2023-07-29T05:19:52;16.80;99.90
39219;DHT22;24934;52.752;6.964;2023-07-29T05:22:30;16.80;99.90
39219;DHT22;24934;52.752;6.964;2023-07-29T05:28:25;16.80;99.90
39219;DHT22;24934;52.752;6.964;2023-07-29T05:30:55;16.90;99.90
39219;DHT22;24934;52.752;6.964;2023-07-29T05:33:26;16.90;99.90
39219;DHT22;24934;52.752;6.964;2023-07-29T05:35:56;16.90;99.90
39219;DHT22;24934;52.752;6.964;2023-07-29T05:38:23;17.00;99.90
39219;DHT22;24934;52.752;6.964;2023-07-29T05:40:49;17.00;99.90
39219;DHT22;24934;52.752;6.964;2023-07-29T05:46:34;17.20;99.90
39219;DHT22;24934;52.752;6.964;2023-07-29T05:49:08;17.30;99.90
39219;DHT22;24934;52.752;6.964;2023-07-29T05:51:54;17.40;99.90
39219;DHT22;24934;52.752;6.964;2023-07-29T05:54:25;17.40;99.90
39219;DHT22;24934;52.752;6.964;2023-07-29T05:56:54;17.40;99.90
39219;DHT22;24934;52.752;6.964;2023-07-29T06:00:06;17.50;99.90
39219;DHT22;24934;52.752;6.964;2023-07-29T06:02:35;17.50;99.90
39219;DHT22;24934;52.752;6.964;2023-07-29T06:05:03;17.50;99.90
39219;DHT22;24934;52.752;6.964;2023-07-29T06:07:29;17.50;99.90
39219;DHT22;24934;52.752;6.964;2023-07-29T06:09:59;17.60;99.90
39219;DHT22;24934;52.752;6.964;2023-07-29T06:12:25;17.70;99.90
39219;DHT22;24934;52.752;6.964;2023-07-29T06:14:53;17.80;99.90
39219;DHT22;24934;52.752;6.964;2023-07-29T06:17:18;17.80;99.90
39219;DHT22;24934;52.752;6.964;2023-07-29T06:19:44;17.90;99.90
39219;DHT22;24934;52.752;6.964;2023-07-29T06:22:10;18.00;99.90
39219;DHT22;24934;52.752;6.964;2023-07-29T06:24:36;18.10;99.90
39219;DHT22;24934;52.752;6.964;2023-07-29T06:27:01;18.30;99.90
39219;DHT22;24934;52.752;6.964;2023-07-29T06:29:27;18.40;99.90
39219;DHT22;24934;52.752;6.964;2023-07-29T06:31:53;18.50;99.90
39219;DHT22;24934;52.752;6.964;2023-07-29T06:34:22;18.60;99.90
39219;DHT22;24934;52.752;6.964;2023-07-29T06:36:48;18.80;99.90
39219;DHT22;24934;52.752;6.964;2023-07-29T06:39:13;18.80;99.90
39219;DHT22;24934;52.752;6.964;2023-07-29T06:41:39;19.00;99.90
39219;DHT22;24934;52.752;6.964;2023-07-29T06:44:04;18.90;99.90
39219;DHT22;24934;52.752;6.964;2023-07-29T06:46:30;18.90;99.90
39219;DHT22;24934;52.752;6.964;2023-07-29T06:48:56;18.90;99.90
39219;DHT22;24934;52.752;6.964;2023-07-29T06:51:21;18.90;99.90
39219;DHT22;24934;52.752;6.964;2023-07-29T06:53:47;18.80;99.90
39219;DHT22;24934;52.752;6.964;2023-07-29T06:56:12;18.90;99.90
39219;DHT22;24934;52.752;6.964;2023-07-29T06:58:38;19.10;99.90
39219;DHT22;24934;52.752;6.964;2023-07-29T07:01:04;19.20;99.90
39219;DHT22;24934;52.752;6.964;2023-07-29T07:03:29;19.40;99.90
39219;DHT22;24934;52.752;6.964;2023-07-29T07:05:55;19.30;99.90
39219;DHT22;24934;52.752;6.964;2023-07-29T07:08:23;19.40;99.90
39219;DHT22;24934;52.752;6.964;2023-07-29T07:10:48;19.50;99.90
39219;DHT22;24934;52.752;6.964;2023-07-29T07:13:14;19.60;99.90
39219;DHT22;24934;52.752;6.964;2023-07-29T07:15:40;19.60;99.90
39219;DHT22;24934;52.752;6.964;2023-07-29T07:18:05;19.50;99.90
39219;DHT22;24934;52.752;6.964;2023-07-29T07:20:31;19.50;99.90
39219;DHT22;24934;52.752;6.964;2023-07-29T07:22:57;19.70;99.90
39219;DHT22;24934;52.752;6.964;2023-07-29T07:25:22;19.80;99.90
39219;DHT22;24934;52.752;6.964;2023-07-29T07:27:48;19.70;99.90
39219;DHT22;24934;52.752;6.964;2023-07-29T07:30:14;19.80;99.90
39219;DHT22;24934;52.752;6.964;2023-07-29T07:32:39;19.80;99.90
39219;DHT22;24934;52.752;6.964;2023-07-29T07:35:05;19.80;99.90
39219;DHT22;24934;52.752;6.964;2023-07-29T07:37:31;19.70;99.90
39219;DHT22;24934;52.752;6.964;2023-07-29T07:39:56;19.90;99.90
39219;DHT22;24934;52.752;6.964;2023-07-29T07:42:22;20.00;99.90
39219;DHT22;24934;52.752;6.964;2023-07-29T07:44:48;20.10;99.90
39219;DHT22;24934;52.752;6.964;2023-07-29T07:47:13;20.10;99.90
39219;DHT22;24934;52.752;6.964;2023-07-29T07:49:39;20.20;99.90
39219;DHT22;24934;52.752;6.964;2023-07-29T07:52:05;20.40;99.90
39219;DHT22;24934;52.752;6.964;2023-07-29T07:54:30;20.30;99.90
39219;DHT22;24934;52.752;6.964;2023-07-29T07:56:56;20.60;99.90
39219;DHT22;24934;52.752;6.964;2023-07-29T07:59:22;20.80;99.90
39219;DHT22;24934;52.752;6.964;2023-07-29T08:01:47;20.90;99.90
39219;DHT22;24934;52.752;6.964;2023-07-29T08:04:13;21.10;99.90
39219;DHT22;24934;52.752;6.964;2023-07-29T08:06:39;21.40;99.90
39219;DHT22;24934;52.752;6.964;2023-07-29T08:09:04;21.60;99.90
39219;DHT22;24934;52.752;6.964;2023-07-29T08:11:30;21.70;99.90
39219;DHT22;24934;52.752;6.964;2023-07-29T08:13:56;22.20;99.90
39219;DHT22;24934;52.752;6.964;2023-07-29T08:16:21;22.80;99.90
39219;DHT22;24934;52.752;6.964;2023-07-29T08:18:47;23.40;99.90
39219;DHT22;24934;52.752;6.964;2023-07-29T08:21:19;23.80;99.90
39219;DHT22;24934;52.752;6.964;2023-07-29T08:23:44;23.60;99.90
39219;DHT22;24934;52.752;6.964;2023-07-29T08:26:10;23.20;99.90
39219;DHT22;24934;52.752;6.964;2023-07-29T08:28:37;22.60;99.90
39219;DHT22;24934;52.752;6.964;2023-07-29T08:31:04;22.10;99.90
39219;DHT22;24934;52.752;6.964;2023-07-29T08:33:31;21.60;99.90
39219;DHT22;24934;52.752;6.964;2023-07-29T08:35:57;21.40;99.90
39219;DHT22;24934;52.752;6.964;2023-07-29T08:38:22;21.60;99.90
39219;DHT22;24934;52.752;6.964;2023-07-29T08:43:20;23.80;99.90
39219;DHT22;24934;52.752;6.964;2023-07-29T08:45:51;24.50;99.90
39219;DHT22;24934;52.752;6.964;2023-07-29T08:48:21;25.80;99.90
39219;DHT22;24934;52.752;6.964;2023-07-29T08:50:51;25.50;99.90
39219;DHT22;24934;52.752;6.964;2023-07-29T08:53:17;25.00;99.90
39219;DHT22;24934;52.752;6.964;2023-07-29T08:55:43;24.20;99.90
39219;DHT22;24934;52.752;6.964;2023-07-29T08:58:09;23.50;99.90
39219;DHT22;24934;52.752;6.964;2023-07-29T09:00:35;22.90;99.90
39219;DHT22;24934;52.752;6.964;2023-07-29T09:03:02;22.70;99.90
39219;DHT22;24934;52.752;6.964;2023-07-29T09:05:33;23.90;99.90
39219;DHT22;24934;52.752;6.964;2023-07-29T09:07:59;25.10;99.90
39219;DHT22;24934;52.752;6.964;2023-07-29T09:10:26;25.50;99.90
39219;DHT22;24934;52.752;6.964;2023-07-29T09:12:52;26.10;99.90
39219;DHT22;24934;52.752;6.964;2023-07-29T09:15:27;26.70;99.90
39219;DHT22;24934;52.752;6.964;2023-07-29T09:17:53;27.10;99.90
39219;DHT22;24934;52.752;6.964;2023-07-29T09:20:26;27.50;99.90
39219;DHT22;24934;52.752;6.964;2023-07-29T09:22:58;27.40;99.90
39219;DHT22;24934;52.752;6.964;2023-07-29T09:25:30;27.20;99.90
39219;DHT22;24934;52.752;6.964;2023-07-29T09:28:00;26.90;99.90
39219;DHT22;24934;52.752;6.964;2023-07-29T09:30:26;27.10;99.90
39219;DHT22;24934;52.752;6.964;2023-07-29T09:32:56;27.20;99.90
39219;DHT22;24934;52.752;6.964;2023-07-29T09:35:22;27.20;99.90
39219;DHT22;24934;52.752;6.964;2023-07-29T09:37:49;27.30;99.90
39219;DHT22;24934;52.752;6.964;2023-07-29T09:40:17;26.90;99.90
39219;DHT22;24934;52.752;6.964;2023-07-29T09:42:53;26.80;99.90
39219;DHT22;24934;52.752;6.964;2023-07-29T09:45:23;26.10;99.90
39219;DHT22;24934;52.752;6.964;2023-07-29T09:47:50;25.50;99.90
39219;DHT22;24934;52.752;6.964;2023-07-29T09:50:18;25.20;99.90
39219;DHT22;24934;52.752;6.964;2023-07-29T09:52:44;25.70;99.90
39219;DHT22;24934;52.752;6.964;2023-07-29T09:55:13;25.80;99.90
39219;DHT22;24934;52.752;6.964;2023-07-29T09:57:41;25.30;99.90
39219;DHT22;24934;52.752;6.964;2023-07-29T10:00:07;25.30;99.90
39219;DHT22;24934;52.752;6.964;2023-07-29T10:02:41;26.50;99.90
39219;DHT22;24934;52.752;6.964;2023-07-29T10:05:09;27.10;99.90
39219;DHT22;24934;52.752;6.964;2023-07-29T10:07:39;27.00;99.90
39219;DHT22;24934;52.752;6.964;2023-07-29T10:10:07;26.50;99.90
39219;DHT22;24934;52.752;6.964;2023-07-29T10:12:34;25.60;99.90
39219;DHT22;24934;52.752;6.964;2023-07-29T10:15:05;25.20;99.90
39219;DHT22;24934;52.752;6.964;2023-07-29T10:17:34;24.80;99.90
39219;DHT22;24934;52.752;6.964;2023-07-29T10:20:01;24.80;99.90
39219;DHT22;24934;52.752;6.964;2023-07-29T10:22:38;25.40;99.90
39219;DHT22;24934;52.752;6.964;2023-07-29T10:25:08;25.90;99.90
39219;DHT22;24934;52.752;6.964;2023-07-29T10:27:43;25.60;99.90
39219;DHT22;24934;52.752;6.964;2023-07-29T10:30:11;25.30;99.90
39219;DHT22;24934;52.752;6.964;2023-07-29T10:32:38;25.10;99.90
39219;DHT22;24934;52.752;6.964;2023-07-29T10:35:04;24.70;99.90
39219;DHT22;24934;52.752;6.964;2023-07-29T10:37:30;24.40;99.90
39219;DHT22;24934;52.752;6.964;2023-07-29T10:39:56;24.30;99.90
39219;DHT22;24934;52.752;6.964;2023-07-29T10:42:22;24.10;99.90
39219;DHT22;24934;52.752;6.964;2023-07-29T10:44:49;23.70;99.90
39219;DHT22;24934;52.752;6.964;2023-07-29T10:49:43;23.70;99.90
39219;DHT22;24934;52.752;6.964;2023-07-29T10:52:17;23.80;99.90
39219;DHT22;24934;52.752;6.964;2023-07-29T10:54:52;23.90;99.90
39219;DHT22;24934;52.752;6.964;2023-07-29T10:57:50;23.90;99.90
39219;DHT22;24934;52.752;6.964;2023-07-29T11:00:18;24.50;99.90
39219;DHT22;24934;52.752;6.964;2023-07-29T11:02:59;24.80;99.90
39219;DHT22;24934;52.752;6.964;2023-07-29T11:05:45;24.90;99.90
39219;DHT22;24934;52.752;6.964;2023-07-29T11:10:44;24.60;99.90
39219;DHT22;24934;52.752;6.964;2023-07-29T11:13:12;25.10;99.90
39219;DHT22;24934;52.752;6.964;2023-07-29T11:15:39;25.40;99.90
39219;DHT22;24934;52.752;6.964;2023-07-29T11:18:06;25.40;99.90
39219;DHT22;24934;52.752;6.964;2023-07-29T11:20:34;25.00;99.90
39219;DHT22;24934;52.752;6.964;2023-07-29T11:23:01;24.90;99.90
39219;DHT22;24934;52.752;6.964;2023-07-29T11:25:29;24.90;99.90
39219;DHT22;24934;52.752;6.964;2023-07-29T11:27:56;24.60;99.90
39219;DHT22;24934;52.752;6.964;2023-07-29T11:30:22;24.60;99.90
39219;DHT22;24934;52.752;6.964;2023-07-29T11:32:55;24.60;99.90
39219;DHT22;24934;52.752;6.964;2023-07-29T11:35:21;24.90;99.90
39219;DHT22;24934;52.752;6.964;2023-07-29T11:37:49;25.10;99.90
39219;DHT22;24934;52.752;6.964;2023-07-29T11:40:16;25.10;99.90
39219;DHT22;24934;52.752;6.964;2023-07-29T11:42:43;25.40;99.90
39219;DHT22;24934;52.752;6.964;2023-07-29T11:45:09;26.10;99.90
39219;DHT22;24934;52.752;6.964;2023-07-29T11:47:35;26.40;99.90
39219;DHT22;24934;52.752;6.964;2023-07-29T11:50:03;26.50;99.90
39219;DHT22;24934;52.752;6.964;2023-07-29T11:52:31;26.70;99.90
39219;DHT22;24934;52.752;6.964;2023-07-29T11:54:57;26.40;99.90
39219;DHT22;24934;52.752;6.964;2023-07-29T11:57:24;26.40;99.90
39219;DHT22;24934;52.752;6.964;2023-07-29T11:59:53;26.20;99.90
39219;DHT22;24934;52.752;6.964;2023-07-29T12:02:28;25.80;99.90
39219;DHT22;24934;52.752;6.964;2023-07-29T12:04:53;25.50;99.90
39219;DHT22;24934;52.752;6.964;2023-07-29T12:07:19;24.80;99.90
39219;DHT22;24934;52.752;6.964;2023-07-29T12:09:46;24.80;99.90
39219;DHT22;24934;52.752;6.964;2023-07-29T12:12:12;25.30;99.90
39219;DHT22;24934;52.752;6.964;2023-07-29T12:14:37;25.60;99.90
39219;DHT22;24934;52.752;6.964;2023-07-29T12:17:05;25.40;99.90
39219;DHT22;24934;52.752;6.964;2023-07-29T12:19:36;25.10;99.90
39219;DHT22;24934;52.752;6.964;2023-07-29T12:22:05;25.10;99.90
39219;DHT22;24934;52.752;6.964;2023-07-29T12:24:32;24.70;99.90
39219;DHT22;24934;52.752;6.964;2023-07-29T12:26:58;24.40;99.90
39219;DHT22;24934;52.752;6.964;2023-07-29T12:29:25;24.70;99.90
39219;DHT22;24934;52.752;6.964;2023-07-29T12:32:01;24.90;99.90
39219;DHT22;24934;52.752;6.964;2023-07-29T12:34:28;25.00;99.90
39219;DHT22;24934;52.752;6.964;2023-07-29T12:36:55;25.10;99.90
39219;DHT22;24934;52.752;6.964;2023-07-29T12:39:32;24.90;99.90
39219;DHT22;24934;52.752;6.964;2023-07-29T12:42:03;25.00;99.90
39219;DHT22;24934;52.752;6.964;2023-07-29T12:44:34;25.10;99.90
39219;DHT22;24934;52.752;6.964;2023-07-29T12:47:04;25.40;99.90
39219;DHT22;24934;52.752;6.964;2023-07-29T12:49:31;25.30;99.90
39219;DHT22;24934;52.752;6.964;2023-07-29T12:51:57;25.30;99.90
39219;DHT22;24934;52.752;6.964;2023-07-29T12:54:23;24.70;99.90
39219;DHT22;24934;52.752;6.964;2023-07-29T12:56:48;24.60;99.90
39219;DHT22;24934;52.752;6.964;2023-07-29T12:59:14;24.50;99.90
39219;DHT22;24934;52.752;6.964;2023-07-29T13:01:40;24.60;99.90
39219;DHT22;24934;52.752;6.964;2023-07-29T13:04:06;24.90;99.90
39219;DHT22;24934;52.752;6.964;2023-07-29T13:06:31;25.50;99.90
39219;DHT22;24934;52.752;6.964;2023-07-29T13:08:57;26.00;99.90
39219;DHT22;24934;52.752;6.964;2023-07-29T13:11:23;26.50;99.90
39219;DHT22;24934;52.752;6.964;2023-07-29T13:13:49;26.30;99.90
39219;DHT22;24934;52.752;6.964;2023-07-29T13:16:15;25.90;99.90
39219;DHT22;24934;52.752;6.964;2023-07-29T13:18:40;25.70;99.90
39219;DHT22;24934;52.752;6.964;2023-07-29T13:21:06;25.70;99.90
39219;DHT22;24934;52.752;6.964;2023-07-29T13:23:32;25.90;99.90
39219;DHT22;24934;52.752;6.964;2023-07-29T13:25:57;25.90;99.90
39219;DHT22;24934;52.752;6.964;2023-07-29T13:28:23;25.90;99.90
39219;DHT22;24934;52.752;6.964;2023-07-29T13:30:49;26.00;99.90
39219;DHT22;24934;52.752;6.964;2023-07-29T13:33:15;25.90;99.90
39219;DHT22;24934;52.752;6.964;2023-07-29T13:35:40;25.60;99.90
39219;DHT22;24934;52.752;6.964;2023-07-29T13:38:06;25.20;99.90
39219;DHT22;24934;52.752;6.964;2023-07-29T13:40:32;24.80;99.90
39219;DHT22;24934;52.752;6.964;2023-07-29T13:42:58;24.80;99.90
39219;DHT22;24934;52.752;6.964;2023-07-29T13:45:23;25.00;99.90
39219;DHT22;24934;52.752;6.964;2023-07-29T13:47:49;25.20;99.90
39219;DHT22;24934;52.752;6.964;2023-07-29T13:50:16;25.20;99.90
39219;DHT22;24934;52.752;6.964;2023-07-29T13:52:41;25.00;99.90
39219;DHT22;24934;52.752;6.964;2023-07-29T13:55:07;24.70;99.90
39219;DHT22;24934;52.752;6.964;2023-07-29T13:57:33;24.70;99.90
39219;DHT22;24934;52.752;6.964;2023-07-29T13:59:59;24.80;99.90
39219;DHT22;24934;52.752;6.964;2023-07-29T14:02:24;25.00;99.90
39219;DHT22;24934;52.752;6.964;2023-07-29T14:04:54;25.30;99.90
39219;DHT22;24934;52.752;6.964;2023-07-29T14:07:19;25.90;99.90
39219;DHT22;24934;52.752;6.964;2023-07-29T14:09:45;26.20;99.90
39219;DHT22;24934;52.752;6.964;2023-07-29T14:12:11;26.10;99.90
39219;DHT22;24934;52.752;6.964;2023-07-29T14:14:38;26.20;99.90
39219;DHT22;24934;52.752;6.964;2023-07-29T14:17:04;26.40;99.90
39219;DHT22;24934;52.752;6.964;2023-07-29T14:19:31;26.60;99.90
39219;DHT22;24934;52.752;6.964;2023-07-29T14:21:57;26.30;99.90
39219;DHT22;24934;52.752;6.964;2023-07-29T14:24:22;26.00;99.90
39219;DHT22;24934;52.752;6.964;2023-07-29T14:26:48;25.70;99.90
39219;DHT22;24934;52.752;6.964;2023-07-29T14:29:14;25.40;99.90
39219;DHT22;24934;52.752;6.964;2023-07-29T14:31:39;25.30;99.90
39219;DHT22;24934;52.752;6.964;2023-07-29T14:34:05;25.50;99.90
39219;DHT22;24934;52.752;6.964;2023-07-29T14:36:31;25.50;99.90
39219;DHT22;24934;52.752;6.964;2023-07-29T14:38:56;25.30;99.90
39219;DHT22;24934;52.752;6.964;2023-07-29T14:41:22;25.10;99.90
39219;DHT22;24934;52.752;6.964;2023-07-29T14:43:47;25.10;99.90
39219;DHT22;24934;52.752;6.964;2023-07-29T14:46:13;24.70;99.90
39219;DHT22;24934;52.752;6.964;2023-07-29T14:48:39;24.50;99.90
39219;DHT22;24934;52.752;6.964;2023-07-29T14:51:04;24.10;99.90
39219;DHT22;24934;52.752;6.964;2023-07-29T14:53:30;23.90;99.90
39219;DHT22;24934;52.752;6.964;2023-07-29T14:55:55;23.50;99.90
39219;DHT22;24934;52.752;6.964;2023-07-29T14:58:21;23.30;99.90
39219;DHT22;24934;52.752;6.964;2023-07-29T15:00:47;23.10;99.90
39219;DHT22;24934;52.752;6.964;2023-07-29T15:03:12;23.10;99.90
39219;DHT22;24934;52.752;6.964;2023-07-29T15:05:38;22.90;99.90
39219;DHT22;24934;52.752;6.964;2023-07-29T15:08:04;22.60;99.90
39219;DHT22;24934;52.752;6.964;2023-07-29T15:10:29;22.40;99.90
39219;DHT22;24934;52.752;6.964;2023-07-29T15:12:55;22.00;99.90
39219;DHT22;24934;52.752;6.964;2023-07-29T15:15:20;21.20;99.90
39219;DHT22;24934;52.752;6.964;2023-07-29T15:17:46;20.50;99.90
39219;DHT22;24934;52.752;6.964;2023-07-29T15:20:12;19.90;99.90
39219;DHT22;24934;52.752;6.964;2023-07-29T15:22:37;19.30;99.90
39219;DHT22;24934;52.752;6.964;2023-07-29T15:25:04;18.80;99.90
39219;DHT22;24934;52.752;6.964;2023-07-29T15:27:30;18.50;99.90
39219;DHT22;24934;52.752;6.964;2023-07-29T15:29:56;18.40;99.90
39219;DHT22;24934;52.752;6.964;2023-07-29T15:32:22;18.40;99.90
39219;DHT22;24934;52.752;6.964;2023-07-29T15:34:48;18.50;99.90
39219;DHT22;24934;52.752;6.964;2023-07-29T15:37:14;18.80;99.90
39219;DHT22;24934;52.752;6.964;2023-07-29T15:39:40;19.10;99.90
39219;DHT22;24934;52.752;6.964;2023-07-29T15:42:06;19.30;99.90
39219;DHT22;24934;52.752;6.964;2023-07-29T15:44:35;19.50;99.90
39219;DHT22;24934;52.752;6.964;2023-07-29T15:47:02;19.70;99.90
39219;DHT22;24934;52.752;6.964;2023-07-29T15:49:28;19.70;99.90
39219;DHT22;24934;52.752;6.964;2023-07-29T15:51:53;19.90;99.90
39219;DHT22;24934;52.752;6.964;2023-07-29T15:54:19;20.10;99.90